Time;durP1;ratioP1;P1;durP2;ratioP2;P2;SDS_P1;SDS_P2;PMS_P1;PMS_P2;Temp;Humidity;BMP_temperature;BMP_pressure;BME280_temperature;BME280_humidity;BME280_pressure;Samples;Min_cycle;Max_cycle;Signal;HPM_P1;HPM_P2
2023/04/25 00:02:22;;;;;;;6.70;4.07;;;19.30;52.50;;;;;;4928261;29;20445;-81
2023/04/25 00:04:52;;;;;;;7.50;5.03;;;19.40;52.60;;;;;;4928116;29;20477;-80
2023/04/25 00:07:20;;;;;;;10.37;6.30;;;19.30;52.40;;;;;;4928460;29;20456;-81
2023/04/25 00:09:48;;;;;;;11.90;7.27;;;19.30;52.60;;;;;;4926397;29;20459;-81
2023/04/25 00:12:17;;;;;;;13.73;8.23;;;19.30;52.50;;;;;;4925898;29;20484;-82
2023/04/25 00:14:46;;;;;;;11.40;8.27;;;19.30;52.70;;;;;;4920471;29;20446;-82
2023/04/25 00:17:14;;;;;;;16.03;10.67;;;19.30;52.60;;;;;;4927595;29;20459;-83
2023/04/25 00:19:44;;;;;;;16.37;10.37;;;19.30;52.60;;;;;;4924850;29;20838;-81
2023/04/25 00:22:13;;;;;;;17.73;11.63;;;19.30;52.70;;;;;;4926897;29;20563;-82
2023/04/25 00:24:41;;;;;;;19.47;10.97;;;19.30;52.60;;;;;;4925402;29;20540;-82
2023/04/25 00:27:09;;;;;;;18.73;12.13;;;19.30;52.70;;;;;;4923685;29;20535;-83
2023/04/25 00:29:37;;;;;;;20.43;11.77;;;19.20;52.60;;;;;;4930895;29;20441;-83
2023/04/25 00:32:07;;;;;;;20.67;12.87;;;19.30;52.80;;;;;;4929388;29;20468;-81
2023/04/25 00:34:35;;;;;;;18.47;12.80;;;19.30;52.90;;;;;;4929522;29;20469;-82
2023/04/25 00:37:03;;;;;;;18.70;12.30;;;19.20;52.80;;;;;;4929218;29;20457;-82
2023/04/25 00:39:32;;;;;;;22.63;13.90;;;19.20;52.90;;;;;;4930076;29;20465;-82
2023/04/25 00:42:01;;;;;;;22.77;13.93;;;19.20;52.80;;;;;;4918658;29;20524;-83
2023/04/25 00:44:30;;;;;;;21.03;12.60;;;19.20;52.80;;;;;;4925584;29;20472;-83
2023/04/25 00:46:59;;;;;;;25.43;13.50;;;19.20;52.90;;;;;;4922118;29;20441;-81
2023/04/25 00:49:27;;;;;;;22.00;13.27;;;19.20;52.90;;;;;;4921310;29;20449;-82
2023/04/25 00:51:55;;;;;;;22.23;13.33;;;19.20;53.00;;;;;;4917935;29;20477;-79
2023/04/25 00:54:23;;;;;;;18.97;12.90;;;19.20;53.00;;;;;;4918031;29;20465;-79
2023/04/25 00:56:53;;;;;;;19.77;13.10;;;19.10;52.90;;;;;;4918596;29;20566;-79
2023/04/25 00:59:21;;;;;;;21.50;13.40;;;19.10;52.90;;;;;;4919087;29;20512;-78
2023/04/25 01:01:49;;;;;;;19.43;12.30;;;19.10;53.00;;;;;;4918599;29;20547;-79
2023/04/25 01:04:17;;;;;;;21.43;13.73;;;19.20;53.00;;;;;;4918281;29;20468;-79
2023/04/25 01:06:46;;;;;;;19.40;13.07;;;19.10;53.00;;;;;;4919254;29;20441;-79
2023/04/25 01:09:14;;;;;;;21.07;13.70;;;19.10;53.10;;;;;;4912970;29;20462;-78
2023/04/25 01:11:42;;;;;;;20.23;12.80;;;19.10;53.10;;;;;;4920291;28;20564;-79
2023/04/25 01:14:11;;;;;;;19.67;12.90;;;19.10;53.00;;;;;;4916151;29;20437;-79
2023/04/25 01:16:39;;;;;;;19.27;13.07;;;19.10;53.20;;;;;;4909561;29;20536;-79
2023/04/25 01:19:09;;;;;;;17.97;12.07;;;19.00;53.20;;;;;;4919250;29;20447;-78
2023/04/25 01:21:38;;;;;;;21.97;12.13;;;19.10;53.20;;;;;;4917092;29;20544;-78
2023/04/25 01:24:06;;;;;;;24.13;12.87;;;19.10;53.10;;;;;;4914509;29;20488;-78
2023/04/25 01:26:34;;;;;;;17.70;11.33;;;19.10;53.20;;;;;;4906718;29;20438;-78
2023/04/25 01:29:03;;;;;;;16.57;11.23;;;19.00;53.10;;;;;;4912919;29;20560;-78
2023/04/25 01:31:31;;;;;;;21.30;12.07;;;19.00;53.10;;;;;;4909153;29;20485;-78
2023/04/25 01:33:59;;;;;;;18.00;11.80;;;19.00;53.10;;;;;;4911492;29;20528;-78
2023/04/25 01:36:27;;;;;;;21.13;11.97;;;19.10;53.10;;;;;;4909610;29;20445;-79
2023/04/25 01:38:56;;;;;;;18.93;11.30;;;19.00;53.20;;;;;;4915919;29;20452;-79
2023/04/25 01:41:25;;;;;;;17.60;11.00;;;19.00;53.20;;;;;;4918349;29;20532;-79
2023/04/25 01:43:53;;;;;;;21.90;11.10;;;19.00;53.10;;;;;;4913719;29;20528;-79
2023/04/25 01:46:21;;;;;;;17.10;10.73;;;19.00;53.10;;;;;;4917993;29;20441;-79
2023/04/25 01:48:48;;;;;;;15.30;10.20;;;19.00;53.20;;;;;;4912252;29;20446;-79
2023/04/25 01:51:16;;;;;;;18.10;10.30;;;19.00;53.30;;;;;;4914142;29;20553;-80
2023/04/25 01:53:44;;;;;;;18.80;10.60;;;19.00;53.00;;;;;;4916657;29;20965;-79
2023/04/25 01:56:14;;;;;;;16.03;9.70;;;18.90;53.10;;;;;;4915513;29;20449;-79
2023/04/25 01:58:42;;;;;;;15.60;10.50;;;18.90;53.20;;;;;;4909857;29;20449;-79
2023/04/25 02:01:10;;;;;;;14.13;9.77;;;18.90;53.10;;;;;;4914525;29;20472;-79
2023/04/25 02:03:39;;;;;;;19.53;10.23;;;19.00;53.30;;;;;;4906681;29;20483;-79
2023/04/25 02:06:10;;;;;;;15.03;9.03;;;18.90;53.20;;;;;;4914821;29;20552;-79
2023/04/25 02:08:38;;;;;;;13.30;9.00;;;18.90;53.30;;;;;;4921185;29;20461;-79
2023/04/25 02:11:06;;;;;;;15.90;9.33;;;18.80;53.20;;;;;;4916917;29;20473;-79
2023/04/25 02:13:36;;;;;;;12.70;8.73;;;18.90;53.40;;;;;;4917933;29;20457;-79
2023/04/25 02:16:04;;;;;;;18.13;9.60;;;18.80;53.20;;;;;;4912615;29;20459;-79
2023/04/25 02:18:33;;;;;;;16.90;9.17;;;18.90;53.30;;;;;;4917562;29;20463;-79
2023/04/25 02:21:02;;;;;;;14.87;8.70;;;18.80;53.30;;;;;;4911215;29;20460;-79
2023/04/25 02:23:30;;;;;;;15.17;8.70;;;18.80;53.20;;;;;;4911170;29;20448;-79
2023/04/25 02:25:58;;;;;;;13.20;8.33;;;18.90;53.30;;;;;;4915472;29;20472;-79
2023/04/25 02:28:26;;;;;;;17.93;8.57;;;18.80;53.10;;;;;;4911852;29;20875;-79
2023/04/25 02:30:56;;;;;;;13.63;7.67;;;18.80;53.20;;;;;;4915473;29;20500;-79
2023/04/25 02:33:23;;;;;;;12.80;8.23;;;18.80;53.30;;;;;;4919904;29;20806;-79
2023/04/25 02:35:51;;;;;;;13.43;8.07;;;18.80;53.30;;;;;;4918593;29;20958;-79
2023/04/25 02:38:19;;;;;;;12.33;8.40;;;18.80;53.20;;;;;;4918680;29;20437;-80
2023/04/25 02:40:47;;;;;;;13.47;7.40;;;18.80;53.20;;;;;;4918212;29;20469;-79
2023/04/25 02:43:15;;;;;;;12.10;7.60;;;18.80;53.20;;;;;;4916904;29;20456;-79
2023/04/25 02:45:44;;;;;;;16.43;7.90;;;18.70;53.20;;;;;;4919520;29;20483;-79
2023/04/25 02:48:13;;;;;;;11.80;6.80;;;18.70;53.30;;;;;;4920049;29;20457;-77
2023/04/25 02:50:42;;;;;;;13.53;7.30;;;18.70;53.20;;;;;;4919812;29;20853;-80
2023/04/25 02:53:10;;;;;;;11.17;7.57;;;18.70;53.30;;;;;;4920134;29;20455;-80
2023/04/25 02:55:38;;;;;;;11.80;7.13;;;18.70;53.30;;;;;;4919946;29;20973;-79
2023/04/25 02:58:07;;;;;;;12.27;6.93;;;18.70;53.10;;;;;;4919499;29;20457;-79
2023/04/25 03:00:35;;;;;;;12.33;7.00;;;18.70;53.20;;;;;;4919223;29;20477;-79
2023/04/25 03:03:03;;;;;;;10.47;6.50;;;18.70;53.20;;;;;;4915721;29;20536;-79
2023/04/25 03:05:32;;;;;;;9.97;6.20;;;18.70;53.20;;;;;;4915058;29;20874;-79
2023/04/25 03:08:00;;;;;;;14.27;6.87;;;18.70;53.10;;;;;;4915277;29;20483;-79
2023/04/25 03:10:28;;;;;;;8.50;6.03;;;18.70;53.40;;;;;;4920515;29;20473;-79
2023/04/25 03:12:56;;;;;;;12.20;6.30;;;18.70;53.20;;;;;;4920352;29;20452;-79
2023/04/25 03:15:24;;;;;;;7.67;5.90;;;18.70;53.20;;;;;;4919732;29;20425;-78
2023/04/25 03:17:51;;;;;;;12.80;5.80;;;18.60;53.30;;;;;;4917208;29;20429;-79
2023/04/25 03:20:19;;;;;;;10.77;6.10;;;18.70;53.30;;;;;;4919586;29;20516;-79
2023/04/25 03:22:48;;;;;;;11.67;6.40;;;18.60;53.30;;;;;;4925047;29;20444;-78
2023/04/25 03:25:16;;;;;;;7.67;5.50;;;18.60;53.30;;;;;;4917584;29;20483;-79
2023/04/25 03:27:44;;;;;;;9.47;6.00;;;18.60;53.30;;;;;;4927615;28;20445;-79
2023/04/25 03:30:12;;;;;;;9.80;6.00;;;18.60;53.30;;;;;;4916019;29;20452;-79
2023/04/25 03:32:41;;;;;;;11.40;6.20;;;18.60;53.20;;;;;;4910905;29;20475;-80
2023/04/25 03:35:09;;;;;;;10.87;6.10;;;18.60;53.20;;;;;;4917502;29;20437;-79
2023/04/25 03:37:37;;;;;;;10.10;6.03;;;18.60;53.20;;;;;;4918157;29;20448;-79
2023/04/25 03:40:08;;;;;;;10.03;5.83;;;18.50;53.20;;;;;;4918778;29;20449;-79
2023/04/25 03:42:36;;;;;;;15.00;5.47;;;18.50;53.10;;;;;;4918635;29;20459;-79
2023/04/25 03:45:06;;;;;;;9.40;5.57;;;18.50;53.20;;;;;;4918312;29;20577;-79
2023/04/25 03:47:34;;;;;;;8.07;5.33;;;18.50;53.20;;;;;;4918789;29;20452;-79
2023/04/25 03:50:02;;;;;;;8.30;5.10;;;18.50;53.30;;;;;;4918283;29;20479;-79
2023/04/25 03:52:30;;;;;;;6.90;4.97;;;18.40;53.20;;;;;;4919259;29;20452;-79
2023/04/25 03:54:58;;;;;;;9.23;5.20;;;18.40;53.20;;;;;;4920061;29;20451;-79
2023/04/25 03:57:28;;;;;;;10.67;5.47;;;18.40;53.30;;;;;;4919794;29;20448;-80
2023/04/25 03:59:56;;;;;;;8.50;5.17;;;18.40;53.30;;;;;;4919502;29;20463;-79
2023/04/25 04:02:23;;;;;;;10.43;5.47;;;18.40;53.20;;;;;;4919621;29;20449;-79
2023/04/25 04:04:52;;;;;;;11.37;5.40;;;18.40;53.10;;;;;;4919765;29;20445;-79
2023/04/25 04:07:20;;;;;;;9.30;5.07;;;18.40;53.20;;;;;;4919269;29;20564;-78
2023/04/25 04:09:48;;;;;;;6.13;4.60;;;18.40;53.20;;;;;;4914415;29;20468;-79
2023/04/25 04:12:16;;;;;;;7.40;4.60;;;18.40;53.20;;;;;;4919315;29;20457;-79
2023/04/25 04:14:45;;;;;;;8.27;4.87;;;18.40;53.30;;;;;;4919513;29;20447;-79
2023/04/25 04:17:12;;;;;;;9.23;4.87;;;18.40;53.10;;;;;;4918147;29;20437;-79
2023/04/25 04:19:40;;;;;;;8.00;4.93;;;18.40;53.20;;;;;;4916827;29;20457;-79
2023/04/25 04:22:08;;;;;;;5.03;4.50;;;18.40;53.10;;;;;;4919912;29;20465;-79
2023/04/25 04:24:36;;;;;;;6.53;4.67;;;18.40;53.20;;;;;;4920037;29;20451;-79
2023/04/25 04:27:04;;;;;;;10.97;4.87;;;18.30;53.10;;;;;;4917683;29;20499;-79
2023/04/25 04:29:31;;;;;;;8.33;4.93;;;18.30;53.20;;;;;;4918930;29;20441;-79
2023/04/25 04:32:02;;;;;;;6.63;4.57;;;18.40;53.20;;;;;;4919585;29;20492;-79
2023/04/25 04:34:30;;;;;;;10.40;4.70;;;18.40;53.20;;;;;;4919719;29;20449;-79
2023/04/25 04:37:00;;;;;;;9.17;4.90;;;18.40;53.20;;;;;;4919392;29;20456;-79
2023/04/25 04:39:28;;;;;;;9.20;4.33;;;18.40;53.10;;;;;;4915547;29;20456;-79
2023/04/25 04:41:56;;;;;;;10.20;4.80;;;18.40;53.00;;;;;;4920226;29;20469;-79
2023/04/25 04:44:26;;;;;;;10.40;4.13;;;18.40;53.10;;;;;;4920094;29;20453;-79
2023/04/25 04:46:54;;;;;;;6.63;4.37;;;18.40;53.00;;;;;;4920179;29;20484;-79
2023/04/25 04:49:23;;;;;;;7.20;4.43;;;18.30;53.10;;;;;;4920249;29;20453;-80
2023/04/25 04:51:52;;;;;;;14.43;5.10;;;18.40;53.00;;;;;;4919954;29;20484;-79
2023/04/25 04:54:20;;;;;;;7.43;4.10;;;18.30;52.90;;;;;;4919487;29;20455;-80
2023/04/25 04:56:48;;;;;;;9.97;4.30;;;18.30;53.10;;;;;;4920897;29;20441;-80
2023/04/25 04:59:16;;;;;;;8.77;4.53;;;18.40;53.00;;;;;;4920924;29;20453;-80
2023/04/25 05:01:44;;;;;;;7.87;4.60;;;18.30;52.90;;;;;;4920533;29;20557;-79
2023/04/25 05:04:12;;;;;;;7.07;4.13;;;18.30;53.00;;;;;;4920289;29;20528;-79
2023/04/25 05:06:41;;;;;;;11.10;4.97;;;18.30;53.00;;;;;;4920189;29;20484;-79
2023/04/25 05:09:10;;;;;;;10.33;5.03;;;18.30;53.00;;;;;;4919639;29;20457;-78
2023/04/25 05:11:37;;;;;;;8.87;4.93;;;18.30;53.00;;;;;;4915315;29;20477;-79
2023/04/25 05:14:05;;;;;;;6.37;4.50;;;18.30;53.10;;;;;;4919262;29;20449;-79
2023/04/25 05:16:34;;;;;;;7.97;5.07;;;18.30;53.00;;;;;;4914648;28;20457;-78
2023/04/25 05:19:02;;;;;;;7.10;4.77;;;18.30;52.90;;;;;;4919554;29;20544;-79
2023/04/25 05:21:31;;;;;;;7.83;4.80;;;18.20;52.70;;;;;;4919378;29;20473;-79
2023/04/25 05:24:01;;;;;;;7.73;4.90;;;18.20;52.80;;;;;;4919042;29;20449;-79
2023/04/25 05:26:30;;;;;;;9.10;4.30;;;18.30;52.80;;;;;;4919807;29;20473;-79
2023/04/25 05:28:58;;;;;;;8.20;4.80;;;18.20;52.60;;;;;;4919053;29;20965;-79
2023/04/25 05:31:26;;;;;;;10.20;5.37;;;18.20;52.70;;;;;;4918984;29;20552;-79
2023/04/25 05:33:54;;;;;;;6.70;4.77;;;18.30;52.60;;;;;;4916339;29;20967;-79
2023/04/25 05:36:22;;;;;;;7.70;4.53;;;18.20;52.60;;;;;;4916404;29;20437;-78
2023/04/25 05:38:50;;;;;;;8.33;5.17;;;18.20;52.70;;;;;;4917023;29;20964;-78
2023/04/25 05:41:19;;;;;;;7.57;4.63;;;18.20;52.60;;;;;;4918565;29;20484;-78
2023/04/25 05:43:49;;;;;;;7.50;4.43;;;18.30;52.40;;;;;;4921412;29;20515;-79
2023/04/25 05:46:18;;;;;;;7.93;4.80;;;18.30;52.50;;;;;;4923517;29;20468;-79
2023/04/25 05:48:45;;;;;;;8.87;4.53;;;18.40;52.50;;;;;;4922921;29;20539;-79
2023/04/25 05:51:13;;;;;;;7.47;4.73;;;18.40;52.30;;;;;;4923646;29;20472;-79
2023/04/25 05:53:41;;;;;;;5.60;4.10;;;18.50;52.40;;;;;;4923337;29;20461;-79
2023/04/25 05:56:09;;;;;;;5.93;4.60;;;18.50;52.50;;;;;;4923402;29;20453;-78
2023/04/25 05:58:39;;;;;;;10.27;4.87;;;18.50;52.50;;;;;;4922886;29;20478;-79
2023/04/25 06:01:07;;;;;;;5.97;4.03;;;18.50;52.20;;;;;;4922869;29;20481;-79
2023/04/25 06:03:35;;;;;;;11.23;5.67;;;18.50;52.30;;;;;;4922565;29;20463;-79
2023/04/25 06:06:04;;;;;;;7.87;4.50;;;18.60;52.50;;;;;;4919034;29;20825;-80
2023/04/25 06:08:32;;;;;;;7.53;4.23;;;18.60;52.30;;;;;;4922563;29;20483;-79
2023/04/25 06:11:00;;;;;;;7.57;4.37;;;18.60;52.20;;;;;;4922923;29;20498;-79
2023/04/25 06:13:28;;;;;;;7.30;4.10;;;18.70;52.50;;;;;;4923532;29;20457;-79
2023/04/25 06:15:57;;;;;;;7.03;4.17;;;18.70;52.40;;;;;;4918961;29;20483;-79
2023/04/25 06:18:25;;;;;;;9.07;4.63;;;18.70;52.50;;;;;;4922943;29;20471;-78
2023/04/25 06:20:53;;;;;;;5.30;4.10;;;18.80;52.60;;;;;;4922651;29;20500;-79
2023/04/25 06:23:21;;;;;;;5.37;3.60;;;18.90;52.50;;;;;;4921425;29;20445;-78
2023/04/25 06:25:49;;;;;;;5.67;4.07;;;19.00;52.50;;;;;;4920859;29;20441;-78
2023/04/25 06:28:17;;;;;;;6.23;3.70;;;19.00;52.20;;;;;;4920996;29;20469;-78
2023/04/25 06:30:44;;;;;;;7.00;3.43;;;19.10;52.30;;;;;;4923265;29;20593;-79
2023/04/25 06:33:14;;;;;;;7.80;4.20;;;19.10;52.10;;;;;;4925536;29;20443;-78
2023/04/25 06:35:42;;;;;;;5.80;3.90;;;19.10;52.90;;;;;;4920131;29;20528;-79
2023/04/25 06:38:10;;;;;;;5.57;3.73;;;19.20;52.40;;;;;;4921061;29;20438;-79
2023/04/25 06:40:40;;;;;;;6.00;3.83;;;19.20;52.30;;;;;;4921140;29;20453;-80
2023/04/25 06:43:08;;;;;;;5.30;3.80;;;19.30;52.30;;;;;;4921419;29;20452;-79
2023/04/25 06:45:36;;;;;;;5.57;3.63;;;19.30;52.40;;;;;;4921676;29;20453;-79
2023/04/25 06:48:05;;;;;;;5.80;4.20;;;19.40;52.20;;;;;;4921011;29;20541;-79
2023/04/25 06:50:34;;;;;;;7.50;3.90;;;19.40;52.20;;;;;;4921222;29;20476;-79
2023/04/25 06:53:03;;;;;;;7.23;3.87;;;19.40;52.30;;;;;;4920414;29;20456;-79
2023/04/25 06:55:31;;;;;;;9.70;3.90;;;19.40;52.50;;;;;;4921568;29;20449;-79
2023/04/25 06:57:59;;;;;;;3.87;3.13;;;19.50;52.60;;;;;;4920772;29;20459;-79
2023/04/25 07:00:28;;;;;;;8.00;3.77;;;19.50;52.60;;;;;;4920567;29;20465;-79
2023/04/25 07:02:56;;;;;;;6.77;3.70;;;19.50;52.50;;;;;;4920363;29;20487;-80
2023/04/25 07:05:24;;;;;;;5.83;3.70;;;19.60;52.70;;;;;;4920639;29;20449;-79
2023/04/25 07:07:54;;;;;;;6.47;3.90;;;19.60;52.70;;;;;;4921208;29;20473;-80
2023/04/25 07:10:22;;;;;;;6.80;3.63;;;19.70;52.80;;;;;;4921896;29;20504;-78
2023/04/25 07:12:50;;;;;;;4.33;3.27;;;19.70;52.90;;;;;;4921422;29;20456;-79
2023/04/25 07:15:18;;;;;;;4.90;3.63;;;19.80;52.90;;;;;;4922563;29;20449;-79
2023/04/25 07:17:46;;;;;;;4.43;3.27;;;19.80;53.00;;;;;;4922479;29;20449;-79
2023/04/25 07:20:16;;;;;;;6.40;3.50;;;20.00;53.10;;;;;;4921198;29;20477;-79
2023/04/25 07:22:44;;;;;;;4.03;3.10;;;20.10;53.00;;;;;;4922947;29;20520;-80
2023/04/25 07:25:13;;;;;;;4.17;3.03;;;20.10;52.80;;;;;;4922706;29;20457;-79
2023/04/25 07:27:41;;;;;;;4.93;3.20;;;20.20;52.60;;;;;;4919409;29;20488;-80
2023/04/25 07:30:10;;;;;;;7.40;3.03;;;20.30;52.70;;;;;;4923112;29;20456;-81
2023/04/25 07:32:38;;;;;;;5.87;3.30;;;20.30;52.50;;;;;;4922128;29;20544;-79
2023/04/25 07:35:06;;;;;;;7.70;3.60;;;20.30;52.50;;;;;;4916700;29;20453;-79
2023/04/25 07:37:34;;;;;;;3.90;2.70;;;20.30;52.30;;;;;;4921053;29;20456;-79
2023/04/25 07:40:04;;;;;;;5.40;3.00;;;20.30;52.30;;;;;;4920953;29;20420;-78
2023/04/25 07:42:33;;;;;;;4.53;3.03;;;20.20;52.30;;;;;;4919449;29;20457;-79
2023/04/25 07:45:01;;;;;;;4.97;3.27;;;20.20;52.40;;;;;;4920070;29;20457;-77
2023/04/25 07:47:30;;;;;;;5.93;2.90;;;20.20;52.50;;;;;;4918923;29;20476;-78
2023/04/25 07:49:58;;;;;;;7.23;3.13;;;20.20;52.60;;;;;;4918849;29;20475;-77
2023/04/25 07:52:26;;;;;;;4.93;3.03;;;20.10;52.60;;;;;;4918249;29;20437;-78
2023/04/25 07:54:55;;;;;;;6.60;3.30;;;20.10;52.60;;;;;;4917940;29;20451;-77
2023/04/25 07:57:24;;;;;;;5.80;2.60;;;20.20;52.70;;;;;;4918265;29;20926;-78
2023/04/25 07:59:54;;;;;;;6.03;3.03;;;20.20;52.60;;;;;;4917603;29;20444;-78
2023/04/25 08:02:21;;;;;;;4.50;2.97;;;20.30;52.50;;;;;;4918028;29;20445;-78
2023/04/25 08:04:52;;;;;;;3.73;2.93;;;20.40;52.50;;;;;;4918711;29;20431;-79
2023/04/25 08:07:20;;;;;;;3.37;2.63;;;20.40;52.40;;;;;;4918744;29;21010;-79
2023/04/25 08:09:49;;;;;;;3.57;2.73;;;20.50;52.60;;;;;;4918619;29;20453;-77
2023/04/25 08:12:18;;;;;;;4.83;2.87;;;20.60;52.20;;;;;;4918545;29;20473;-77
2023/04/25 08:14:49;;;;;;;3.93;2.93;;;20.60;52.20;;;;;;4918064;29;20455;-78
2023/04/25 08:17:20;;;;;;;6.83;3.17;;;20.70;52.30;;;;;;4917891;29;20458;-78
2023/04/25 08:19:48;;;;;;;4.60;2.70;;;20.70;52.10;;;;;;4911578;29;20468;-77
2023/04/25 08:22:16;;;;;;;5.70;2.80;;;20.80;52.10;;;;;;4917721;29;20496;-78
2023/04/25 08:24:44;;;;;;;4.30;3.10;;;20.90;52.40;;;;;;4920284;29;20947;-78
2023/04/25 08:27:12;;;;;;;7.67;3.07;;;21.10;52.50;;;;;;4917760;29;20460;-78
2023/04/25 08:29:40;;;;;;;4.53;2.90;;;21.20;52.60;;;;;;4913544;29;20483;-78
2023/04/25 08:32:08;;;;;;;6.07;2.63;;;21.30;52.30;;;;;;4917933;29;20488;-78
2023/04/25 08:34:39;;;;;;;3.23;2.93;;;21.40;52.20;;;;;;4913000;29;20453;-77
2023/04/25 08:37:30;;;;;;;4.77;3.30;;;21.40;52.00;;;;;;4911333;29;20447;-82
2023/04/25 08:39:59;;;;;;;4.13;2.70;;;21.40;51.90;;;;;;4919238;29;20462;-79
2023/04/25 08:42:28;;;;;;;4.10;2.50;;;21.30;51.70;;;;;;4921043;29;20472;-81
2023/04/25 08:44:56;;;;;;;5.73;2.83;;;21.20;51.80;;;;;;4921041;29;20445;-80
2023/04/25 08:47:24;;;;;;;7.40;2.90;;;21.10;51.70;;;;;;4919339;29;20495;-81
2023/04/25 08:49:54;;;;;;;6.33;2.70;;;21.00;51.80;;;;;;4925832;29;20483;-82
2023/04/25 08:52:23;;;;;;;3.97;2.93;;;21.10;51.90;;;;;;4919763;29;20524;-82
2023/04/25 08:54:54;;;;;;;6.27;3.10;;;21.10;51.80;;;;;;4920961;29;20515;-80
2023/04/25 08:57:23;;;;;;;4.03;2.47;;;21.20;52.00;;;;;;4918825;29;20457;-81
2023/04/25 08:59:56;;;;;;;3.37;2.63;;;21.30;52.00;;;;;;4923830;29;20460;-80
2023/04/25 09:02:35;;;;;;;4.63;2.40;;;21.40;52.20;;;;;;4918301;29;20448;-82
2023/04/25 09:05:22;;;;;;;7.07;3.07;;;21.70;52.20;;;;;;4917842;29;20445;-82
2023/04/25 09:07:56;;;;;;;4.20;3.10;;;21.90;52.10;;;;;;4920074;29;20449;-81
2023/04/25 09:10:24;;;;;;;5.13;2.77;;;22.10;52.20;;;;;;4926240;29;20469;-79
2023/04/25 09:13:06;;;;;;;5.20;2.30;;;22.40;52.40;;;;;;4920743;29;20547;-79
2023/04/25 09:15:34;;;;;;;6.33;3.10;;;22.60;52.00;;;;;;4915621;29;20532;-81
2023/04/25 09:18:02;;;;;;;3.13;2.40;;;22.80;52.00;;;;;;4922451;29;20447;-81
2023/04/25 09:20:50;;;;;;;3.20;2.57;;;23.10;51.80;;;;;;4926691;29;20496;-81
2023/04/25 09:23:23;;;;;;;2.63;2.20;;;23.40;51.60;;;;;;4916696;29;20485;-79
2023/04/25 09:25:52;;;;;;;7.73;2.90;;;23.60;51.20;;;;;;4921291;29;20954;-79
2023/04/25 09:28:28;;;;;;;4.47;2.60;;;23.80;50.80;;;;;;4923080;29;20538;-79
2023/04/25 09:30:58;;;;;;;5.13;2.30;;;23.70;50.20;;;;;;4921578;29;20484;-80
2023/04/25 09:33:30;;;;;;;3.77;2.50;;;23.60;50.20;;;;;;4918042;29;20431;-80
2023/04/25 09:36:04;;;;;;;5.40;2.90;;;23.40;50.20;;;;;;4931215;28;20440;-80
2023/04/25 09:38:33;;;;;;;3.83;2.30;;;23.20;50.20;;;;;;4918904;29;20449;-78
2023/04/25 09:41:03;;;;;;;6.00;2.80;;;23.10;50.40;;;;;;4919610;29;20453;-81
2023/04/25 09:43:31;;;;;;;2.33;2.13;;;23.10;50.40;;;;;;4921403;29;20448;-80
2023/04/25 09:46:00;;;;;;;4.20;2.60;;;23.00;50.40;;;;;;4920460;29;20488;-82
2023/04/25 09:48:29;;;;;;;4.30;2.53;;;22.90;50.40;;;;;;4920424;29;20536;-79
2023/04/25 09:51:09;;;;;;;5.47;2.73;;;22.90;50.60;;;;;;4920733;29;20579;-79
2023/04/25 09:53:38;;;;;;;7.63;3.17;;;22.90;50.50;;;;;;4920556;29;20449;-81
2023/04/25 09:56:07;;;;;;;4.13;2.43;;;22.80;50.40;;;;;;4912973;29;20427;-79
2023/04/25 09:58:36;;;;;;;6.30;2.90;;;22.80;50.40;;;;;;4914692;29;20452;-80
2023/04/25 10:01:09;;;;;;;4.57;3.03;;;22.90;50.40;;;;;;4918576;29;20528;-80
2023/04/25 10:03:39;;;;;;;3.90;2.80;;;23.00;50.30;;;;;;4922590;29;20483;-81
2023/04/25 10:06:10;;;;;;;2.50;2.30;;;23.10;50.20;;;;;;4921286;29;20423;-82
2023/04/25 10:08:39;;;;;;;3.47;2.50;;;23.20;50.00;;;;;;4924174;29;20447;-82
2023/04/25 10:11:07;;;;;;;12.30;3.30;;;23.30;49.90;;;;;;4922697;29;20555;-81
2023/04/25 10:13:36;;;;;;;10.33;3.23;;;23.50;50.40;;;;;;4920278;29;20531;-79
2023/04/25 10:16:06;;;;;;;6.50;1.93;;;23.90;50.60;;;;;;4920779;29;20459;-79
2023/04/25 10:18:34;;;;;;;6.00;1.70;;;21.90;41.60;;;;;;4917251;29;20437;-80
2023/04/25 10:21:04;;;;;;;4.13;1.50;;;21.10;39.30;;;;;;4921109;29;20483;-81
2023/04/25 10:23:37;;;;;;;5.60;1.70;;;19.70;37.40;;;;;;4924995;29;20460;-81
2023/04/25 10:26:20;;;;;;;9.70;2.10;;;19.30;40.00;;;;;;4917482;29;20459;-79
2023/04/25 10:28:57;;;;;;;9.70;2.27;;;19.60;39.90;;;;;;4919634;29;20472;-79
2023/04/25 10:31:25;;;;;;;8.27;1.93;;;19.30;40.00;;;;;;4919928;29;20480;-80
2023/04/25 10:33:54;;;;;;;9.10;1.67;;;18.90;37.90;;;;;;4919658;29;20457;-80
2023/04/25 10:36:22;;;;;;;12.30;2.30;;;18.70;39.40;;;;;;4918461;29;20467;-80
2023/04/25 10:38:52;;;;;;;3.03;1.90;;;19.00;40.70;;;;;;4919190;29;20971;-79
2023/04/25 10:41:21;;;;;;;4.03;1.80;;;18.80;39.10;;;;;;4920463;29;20496;-77
2023/04/25 10:43:50;;;;;;;22.57;2.23;;;18.30;38.30;;;;;;4918074;29;20453;-78
2023/04/25 10:46:20;;;;;;;9.90;2.00;;;19.10;44.70;;;;;;4917915;29;20453;-79
2023/04/25 10:48:49;;;;;;;5.97;1.80;;;20.30;44.20;;;;;;4918257;29;20423;-79
2023/04/25 10:51:19;;;;;;;7.10;1.97;;;21.30;44.00;;;;;;4918340;29;20475;-79
2023/04/25 10:53:47;;;;;;;6.40;2.40;;;22.30;43.60;;;;;;4919544;29;20441;-79
2023/04/25 10:56:20;;;;;;;8.07;2.50;;;23.20;43.70;;;;;;4919867;29;20449;-80
2023/04/25 10:58:47;;;;;;;5.40;1.97;;;23.90;43.40;;;;;;4916140;29;20451;-78
2023/04/25 11:01:21;;;;;;;4.70;2.10;;;24.40;43.20;;;;;;4914122;29;20432;-77
2023/04/25 11:03:50;;;;;;;6.23;2.53;;;24.90;43.10;;;;;;4916325;29;20412;-78
2023/04/25 11:06:23;;;;;;;6.63;1.90;;;25.30;42.60;;;;;;4918339;29;20437;-78
2023/04/25 11:08:51;;;;;;;7.30;2.20;;;25.70;42.00;;;;;;4917936;29;20416;-78
2023/04/25 11:11:21;;;;;;;7.50;2.63;;;26.20;41.80;;;;;;4918026;29;20540;-77
2023/04/25 11:13:49;;;;;;;3.57;1.60;;;26.60;40.90;;;;;;4917889;29;20456;-77
2023/04/25 11:16:17;;;;;;;12.97;2.10;;;27.00;40.20;;;;;;4919274;29;20548;-79
2023/04/25 11:18:57;;;;;;;6.33;2.20;;;27.30;40.80;;;;;;4917049;29;20465;-80
2023/04/25 11:21:27;;;;;;;9.40;2.63;;;28.20;37.90;;;;;;4914595;29;20477;-79
2023/04/25 11:23:55;;;;;;;7.10;2.27;;;28.00;37.40;;;;;;4916334;29;20428;-79
2023/04/25 11:26:25;;;;;;;8.63;2.50;;;29.00;39.30;;;;;;4919842;29;20453;-79
2023/04/25 11:28:56;;;;;;;10.60;2.00;;;28.90;36.30;;;;;;4919170;29;20467;-79
2023/04/25 11:31:25;;;;;;;9.67;2.10;;;28.40;36.40;;;;;;4918855;29;20473;-79
2023/04/25 11:33:54;;;;;;;6.30;2.03;;;27.70;37.00;;;;;;4916696;29;20423;-78
2023/04/25 11:36:24;;;;;;;17.47;2.50;;;27.20;37.90;;;;;;4909317;29;20494;-79
2023/04/25 11:38:52;;;;;;;7.13;2.40;;;26.80;38.70;;;;;;4909617;29;20432;-79
2023/04/25 11:41:21;;;;;;;10.27;2.20;;;26.50;39.50;;;;;;4918471;29;20793;-79
2023/04/25 11:43:51;;;;;;;10.47;2.43;;;26.50;40.00;;;;;;4918502;29;20449;-78
2023/04/25 11:46:20;;;;;;;7.00;2.50;;;27.10;42.50;;;;;;4919454;29;20416;-81
2023/04/25 11:48:50;;;;;;;9.37;2.50;;;29.90;40.40;;;;;;4919622;29;20893;-79
2023/04/25 11:51:23;;;;;;;16.13;2.43;;;32.20;35.60;;;;;;4916642;29;20481;-80
2023/04/25 11:53:51;;;;;;;11.30;2.33;;;34.00;31.10;;;;;;4920764;29;20468;-79
2023/04/25 11:56:18;;;;;;;12.27;2.43;;;35.40;29.30;;;;;;4914629;29;20544;-79
2023/04/25 11:58:57;;;;;;;7.33;1.93;;;36.30;28.10;;;;;;4913947;29;20437;-79
2023/04/25 12:01:29;;;;;;;12.20;2.10;;;35.90;26.90;;;;;;4913208;29;20467;-79
2023/04/25 12:03:59;;;;;;;15.93;3.10;;;34.40;27.90;;;;;;4916676;29;20444;-80
2023/04/25 12:06:28;;;;;;;14.30;2.43;;;34.30;28.40;;;;;;4913424;29;20481;-80
2023/04/25 12:09:01;;;;;;;6.83;2.60;;;33.00;29.20;;;;;;4911627;29;20453;-78
2023/04/25 12:11:29;;;;;;;12.27;2.50;;;31.90;30.00;;;;;;4914784;29;20568;-79
2023/04/25 12:14:02;;;;;;;6.83;2.23;;;31.90;31.60;;;;;;4915228;29;20455;-78
2023/04/25 12:16:31;;;;;;;5.53;2.10;;;33.50;29.70;;;;;;4910577;29;20463;-82
2023/04/25 12:18:59;;;;;;;10.53;2.33;;;35.60;28.70;;;;;;4914663;29;20746;-80
2023/04/25 12:21:30;;;;;;;7.87;2.30;;;36.90;26.70;;;;;;4913997;29;20548;-80
2023/04/25 12:23:58;;;;;;;4.93;1.97;;;38.00;25.90;;;;;;4915216;29;20480;-80
2023/04/25 12:26:27;;;;;;;7.10;2.77;;;38.30;25.00;;;;;;4915210;29;20479;-80
2023/04/25 12:28:55;;;;;;;7.67;2.43;;;36.40;25.60;;;;;;4914457;29;20449;-78
2023/04/25 12:31:25;;;;;;;9.03;2.00;;;34.70;27.00;;;;;;4911063;29;20477;-76
2023/04/25 12:33:53;;;;;;;11.43;2.80;;;33.40;28.50;;;;;;4913930;29;20497;-76
2023/04/25 12:36:21;;;;;;;28.67;3.20;;;32.50;29.40;;;;;;4913920;29;20493;-77
2023/04/25 12:38:50;;;;;;;8.03;2.20;;;32.80;30.80;;;;;;4916726;29;20557;-79
2023/04/25 12:41:18;;;;;;;12.90;2.63;;;34.80;29.10;;;;;;4919779;29;20491;-83
2023/04/25 12:43:46;;;;;;;56.63;3.50;;;36.50;27.70;;;;;;4917777;29;20460;-78
2023/04/25 12:46:14;;;;;;;12.80;1.90;;;37.50;26.50;;;;;;4915206;29;20449;-78
2023/04/25 12:48:44;;;;;;;11.77;1.83;;;37.90;22.20;;;;;;4915328;29;20453;-79
2023/04/25 12:51:12;;;;;;;6.23;1.17;;;38.40;20.90;;;;;;4913974;29;20480;-78